Time;durP1;ratioP1;P1;durP2;ratioP2;P2;SDS_P1;SDS_P2;PMS_P1;PMS_P2;Temp;Humidity;BMP_temperature;BMP_pressure;BME280_temperature;BME280_humidity;BME280_pressure;Samples;Min_cycle;Max_cycle;Signal;HPM_P1;HPM_P2
2023/03/15 00:02:07;;;;;;;2.05;0.95;;;7.80;68.40;;;;;;2278535;55;21002;-68
2023/03/15 00:04:37;;;;;;;2.53;1.00;;;7.80;68.40;;;;;;2278950;55;20957;-68
2023/03/15 00:07:04;;;;;;;2.50;1.08;;;7.80;68.40;;;;;;2278713;55;21096;-67
2023/03/15 00:09:32;;;;;;;2.72;1.20;;;7.80;68.40;;;;;;2279172;55;20991;-68
2023/03/15 00:11:58;;;;;;;3.17;0.90;;;7.80;68.40;;;;;;2508996;54;21496;-68
2023/03/15 00:14:24;;;;;;;2.08;0.90;;;7.70;68.40;;;;;;2509308;54;20972;-68
2023/03/15 00:16:51;;;;;;;2.80;1.00;;;7.70;68.50;;;;;;2508474;54;21132;-68
2023/03/15 00:19:17;;;;;;;2.75;1.02;;;7.70;68.50;;;;;;2279196;55;21037;-67
2023/03/15 00:21:43;;;;;;;2.55;1.20;;;7.70;68.60;;;;;;2279242;55;20978;-68
2023/03/15 00:24:10;;;;;;;2.08;0.80;;;7.70;68.70;;;;;;2278794;55;21008;-68
2023/03/15 00:26:36;;;;;;;2.22;0.88;;;7.70;68.80;;;;;;2511561;54;21001;-68
2023/03/15 00:29:03;;;;;;;2.83;1.00;;;7.70;68.80;;;;;;2509524;54;20956;-68
2023/03/15 00:31:29;;;;;;;1.70;0.90;;;7.60;68.70;;;;;;2509049;54;20997;-67
2023/03/15 00:33:56;;;;;;;2.37;1.10;;;7.60;68.80;;;;;;2278729;55;20961;-67
2023/03/15 00:36:23;;;;;;;2.20;0.82;;;7.60;68.80;;;;;;2278897;55;20962;-67
2023/03/15 00:38:51;;;;;;;2.00;0.93;;;7.60;68.80;;;;;;2512098;54;21006;-67
2023/03/15 00:41:17;;;;;;;1.92;0.90;;;7.60;68.80;;;;;;2278976;55;22097;-67
2023/03/15 00:43:43;;;;;;;1.73;0.82;;;7.60;68.80;;;;;;2511337;54;21480;-67
2023/03/15 00:46:10;;;;;;;3.65;1.17;;;7.60;68.80;;;;;;2278980;55;20973;-67
2023/03/15 00:48:36;;;;;;;1.75;0.90;;;7.60;68.70;;;;;;2512882;54;21502;-68
2023/03/15 00:51:09;;;;;;;2.70;1.17;;;7.60;68.70;;;;;;2512500;54;21020;-67
2023/03/15 00:53:39;;;;;;;2.33;0.93;;;7.50;68.50;;;;;;2512635;54;21030;-68
2023/03/15 00:56:10;;;;;;;2.90;1.50;;;7.50;68.50;;;;;;2512314;54;21021;-67
2023/03/15 00:58:37;;;;;;;2.50;0.90;;;7.50;68.40;;;;;;2279089;55;20998;-68
2023/03/15 01:01:14;;;;;;;2.90;1.20;;;7.50;68.40;;;;;;2278762;55;20985;-67
2023/03/15 01:03:40;;;;;;;2.40;1.00;;;7.40;68.30;;;;;;2512021;54;21526;-68
2023/03/15 01:06:14;;;;;;;2.05;0.80;;;7.40;68.40;;;;;;2512788;54;21040;-68
2023/03/15 01:08:42;;;;;;;2.28;1.00;;;7.40;68.40;;;;;;2512100;54;21749;-67
2023/03/15 01:11:12;;;;;;;2.00;0.80;;;7.40;68.60;;;;;;2512737;54;21022;-68
2023/03/15 01:13:38;;;;;;;1.77;0.80;;;7.30;68.40;;;;;;2512005;54;20986;-68
2023/03/15 01:16:05;;;;;;;2.50;1.08;;;7.30;68.40;;;;;;2274598;55;20981;-67
2023/03/15 01:18:33;;;;;;;2.10;1.00;;;7.30;68.50;;;;;;2272751;55;21913;-67
2023/03/15 01:21:01;;;;;;;2.62;0.95;;;7.30;68.50;;;;;;2482365;54;21042;-66
2023/03/15 01:23:27;;;;;;;2.40;1.10;;;7.30;68.40;;;;;;2277827;55;22008;-67
2023/03/15 01:25:53;;;;;;;2.05;1.00;;;7.20;68.30;;;;;;2511968;54;21085;-67
2023/03/15 01:28:20;;;;;;;2.28;1.00;;;7.20;68.30;;;;;;2511470;54;21878;-67
2023/03/15 01:30:50;;;;;;;2.67;1.00;;;7.10;68.20;;;;;;2278702;55;21505;-67
2023/03/15 01:33:16;;;;;;;2.20;0.90;;;7.10;68.00;;;;;;2512235;54;20997;-67
2023/03/15 01:35:47;;;;;;;1.90;1.00;;;7.10;68.00;;;;;;2278913;55;21025;-68
2023/03/15 01:38:14;;;;;;;2.00;0.90;;;7.00;67.80;;;;;;2279724;55;21032;-66
2023/03/15 01:40:43;;;;;;;1.90;0.82;;;7.00;67.90;;;;;;2275736;55;20949;-67
2023/03/15 01:43:17;;;;;;;2.33;0.98;;;7.00;68.10;;;;;;2512708;54;21013;-68
2023/03/15 01:45:55;;;;;;;2.42;1.10;;;6.90;67.80;;;;;;2278672;55;21977;-66
2023/03/15 01:48:26;;;;;;;2.20;0.80;;;6.90;67.70;;;;;;2512715;54;21077;-67
2023/03/15 01:50:53;;;;;;;2.25;0.93;;;6.80;67.90;;;;;;2512514;54;21414;-67
2023/03/15 01:53:21;;;;;;;2.28;1.17;;;6.80;68.10;;;;;;2279093;55;21089;-66
2023/03/15 01:55:48;;;;;;;3.22;1.60;;;6.70;67.80;;;;;;2279096;55;21579;-67
2023/03/15 01:58:14;;;;;;;3.87;1.58;;;6.70;67.80;;;;;;2513316;54;21001;-67
2023/03/15 02:00:41;;;;;;;4.93;1.98;;;6.70;67.80;;;;;;2278872;55;21914;-68
2023/03/15 02:03:13;;;;;;;4.53;1.98;;;6.70;67.80;;;;;;2513189;54;22085;-67
2023/03/15 02:05:45;;;;;;;6.50;2.20;;;6.60;67.80;;;;;;2279297;55;21509;-66
2023/03/15 02:08:12;;;;;;;4.57;1.65;;;6.60;67.70;;;;;;2278764;55;20958;-67
2023/03/15 02:10:43;;;;;;;4.90;1.70;;;6.50;67.70;;;;;;2278962;55;20989;-66
2023/03/15 02:13:11;;;;;;;3.30;1.20;;;6.50;67.70;;;;;;2279323;55;20977;-67
2023/03/15 02:15:37;;;;;;;4.03;1.23;;;6.40;67.60;;;;;;2512696;54;21544;-67
2023/03/15 02:18:04;;;;;;;2.92;1.23;;;6.40;67.70;;;;;;2279297;55;20953;-66
2023/03/15 02:20:35;;;;;;;3.17;1.15;;;6.40;67.70;;;;;;2512590;54;21942;-66
2023/03/15 02:23:05;;;;;;;3.40;0.90;;;6.30;67.60;;;;;;2279782;55;20930;-67
2023/03/15 02:26:25;;;;;;;2.10;0.82;;;6.30;67.70;;;;;;2279440;55;20954;-66
2023/03/15 02:28:52;;;;;;;2.15;0.90;;;6.20;67.60;;;;;;2277041;55;21096;-67
2023/03/15 02:31:19;;;;;;;1.95;0.70;;;6.20;67.70;;;;;;2278172;55;21500;-67
2023/03/15 02:33:51;;;;;;;2.00;0.90;;;6.10;67.70;;;;;;2276402;55;21547;-66
2023/03/15 02:36:22;;;;;;;1.40;0.80;;;6.10;67.60;;;;;;2512024;54;22041;-67
2023/03/15 02:38:49;;;;;;;2.03;0.80;;;6.00;67.60;;;;;;2278213;55;21072;-68
2023/03/15 02:42:20;;;;;;;1.58;0.68;;;6.00;67.60;;;;;;2511270;54;21010;-67
2023/03/15 02:44:47;;;;;;;2.03;0.68;;;6.00;67.60;;;;;;2277731;55;21305;-66
2023/03/15 02:47:17;;;;;;;3.35;0.98;;;5.90;67.50;;;;;;2278093;55;21014;-67
2023/03/15 02:49:45;;;;;;;2.70;0.88;;;5.90;67.70;;;;;;2510741;54;20954;-67
2023/03/15 02:52:12;;;;;;;1.90;0.80;;;5.90;67.70;;;;;;2512007;54;21518;-67
2023/03/15 02:54:42;;;;;;;1.73;0.68;;;5.80;67.70;;;;;;2511330;54;21875;-66
2023/03/15 02:57:10;;;;;;;4.05;0.82;;;5.80;67.70;;;;;;2278202;55;21104;-67
2023/03/15 02:59:36;;;;;;;2.03;0.90;;;5.70;67.70;;;;;;2278060;55;20962;-67
2023/03/15 03:02:04;;;;;;;3.08;0.90;;;5.70;67.70;;;;;;2511463;54;21631;-66
2023/03/15 03:04:30;;;;;;;2.25;0.88;;;5.70;67.70;;;;;;2511684;54;20950;-67
2023/03/15 03:06:57;;;;;;;2.03;0.90;;;5.60;67.60;;;;;;2511190;54;21045;-67
2023/03/15 03:09:23;;;;;;;3.47;0.90;;;5.60;67.70;;;;;;2511785;54;21685;-66
2023/03/15 03:11:49;;;;;;;3.58;0.93;;;5.60;67.80;;;;;;2277992;55;21459;-68
2023/03/15 03:14:16;;;;;;;2.10;0.90;;;5.50;67.90;;;;;;2278198;55;21051;-67
2023/03/15 03:16:42;;;;;;;3.12;1.00;;;5.50;68.10;;;;;;2277301;55;20985;-66
2023/03/15 03:19:11;;;;;;;2.50;1.05;;;5.50;68.20;;;;;;2278193;55;20978;-67
2023/03/15 03:21:37;;;;;;;2.40;0.90;;;5.50;68.90;;;;;;2277884;55;21506;-67
2023/03/15 03:24:04;;;;;;;4.40;1.05;;;5.50;68.20;;;;;;2278223;55;21546;-67
2023/03/15 03:26:31;;;;;;;2.40;1.00;;;5.50;68.20;;;;;;2278277;55;21097;-67
2023/03/15 03:28:57;;;;;;;3.08;0.95;;;5.40;68.20;;;;;;2278802;55;21037;-67
2023/03/15 03:31:25;;;;;;;3.42;1.00;;;5.40;68.10;;;;;;2279324;55;21008;-66
2023/03/15 03:33:51;;;;;;;1.95;0.90;;;5.20;67.90;;;;;;2279101;55;20941;-66
2023/03/15 03:36:20;;;;;;;2.97;1.00;;;5.40;68.00;;;;;;2508806;54;21968;-67
2023/03/15 03:38:47;;;;;;;3.87;0.90;;;5.40;68.00;;;;;;2509676;54;21125;-66
2023/03/15 03:41:13;;;;;;;1.80;0.90;;;5.30;67.90;;;;;;2279492;55;21414;-66
2023/03/15 03:43:40;;;;;;;3.28;0.80;;;5.30;68.00;;;;;;2511981;54;20974;-67
2023/03/15 03:46:06;;;;;;;3.45;0.90;;;5.30;68.10;;;;;;2279958;55;21502;-67
2023/03/15 03:48:32;;;;;;;2.70;0.90;;;5.20;68.00;;;;;;2278652;55;20948;-66
2023/03/15 03:51:00;;;;;;;4.65;1.10;;;5.20;68.00;;;;;;2276834;55;21015;-67
2023/03/15 03:53:27;;;;;;;2.65;1.02;;;5.20;68.00;;;;;;2512712;54;21573;-67
2023/03/15 03:55:54;;;;;;;3.90;0.90;;;5.20;68.00;;;;;;2506011;54;20999;-67
2023/03/15 03:58:20;;;;;;;3.05;1.10;;;5.20;68.00;;;;;;2279884;55;22031;-66
2023/03/15 04:00:46;;;;;;;4.15;1.12;;;5.10;68.00;;;;;;2278624;55;21630;-67
2023/03/15 04:03:13;;;;;;;2.78;1.10;;;5.10;68.00;;;;;;2512863;54;21046;-67
2023/03/15 04:05:40;;;;;;;2.97;1.30;;;5.10;68.10;;;;;;2512618;54;20942;-66
2023/03/15 04:08:06;;;;;;;2.08;0.80;;;5.00;68.00;;;;;;2280539;55;20946;-67
2023/03/15 04:10:34;;;;;;;2.97;1.30;;;5.10;68.20;;;;;;2512303;54;21057;-66
2023/03/15 04:13:00;;;;;;;2.40;1.08;;;5.00;68.00;;;;;;2509566;54;21351;-67
2023/03/15 04:15:26;;;;;;;3.62;1.17;;;5.00;68.10;;;;;;2508867;54;21929;-66
2023/03/15 04:18:02;;;;;;;3.17;1.40;;;4.90;68.00;;;;;;2279106;55;21061;-67
2023/03/15 04:20:33;;;;;;;3.60;1.30;;;4.90;68.10;;;;;;2512530;54;21026;-68
2023/03/15 04:23:01;;;;;;;3.20;1.10;;;4.90;68.10;;;;;;2279566;55;20962;-67
2023/03/15 04:25:27;;;;;;;3.75;1.02;;;4.90;68.20;;;;;;2512250;54;21038;-66
2023/03/15 04:28:01;;;;;;;4.07;1.33;;;4.90;68.20;;;;;;2278551;55;21033;-66
2023/03/15 04:30:28;;;;;;;2.87;1.10;;;4.90;68.30;;;;;;2512620;54;22123;-67
2023/03/15 04:32:57;;;;;;;4.10;1.37;;;4.80;68.30;;;;;;2512754;54;21049;-67
2023/03/15 04:35:31;;;;;;;2.78;1.05;;;4.80;68.30;;;;;;2279391;55;22037;-66
2023/03/15 04:37:59;;;;;;;2.50;1.20;;;4.80;68.30;;;;;;2278467;55;21372;-66
2023/03/15 04:40:25;;;;;;;3.87;1.27;;;4.80;68.30;;;;;;2277816;55;21124;-66
2023/03/15 04:42:55;;;;;;;3.35;1.55;;;4.80;68.40;;;;;;2278153;55;20949;-67
2023/03/15 04:45:27;;;;;;;5.15;1.40;;;4.80;68.50;;;;;;2280124;55;21948;-67
2023/03/15 04:47:53;;;;;;;4.50;1.70;;;4.80;68.60;;;;;;2507315;54;21001;-67
2023/03/15 04:50:20;;;;;;;3.83;1.30;;;4.80;68.70;;;;;;2279201;55;20938;-66
2023/03/15 04:52:47;;;;;;;5.20;1.40;;;4.80;68.70;;;;;;2510165;54;21048;-67
2023/03/15 04:55:13;;;;;;;3.70;1.50;;;4.70;68.60;;;;;;2274840;55;21873;-68
2023/03/15 04:57:41;;;;;;;4.37;2.05;;;4.70;68.60;;;;;;2505477;54;21516;-67
2023/03/15 05:00:11;;;;;;;4.37;1.73;;;4.70;68.60;;;;;;2507587;54;20934;-67
2023/03/15 05:02:40;;;;;;;3.80;1.50;;;4.80;68.80;;;;;;2278823;55;20997;-67
2023/03/15 05:05:07;;;;;;;3.58;1.42;;;4.80;68.80;;;;;;2278947;55;20953;-66
2023/03/15 05:07:33;;;;;;;4.00;1.40;;;4.80;69.50;;;;;;2512008;54;20958;-66
2023/03/15 05:10:00;;;;;;;3.45;1.35;;;4.70;68.70;;;;;;2282289;55;21060;-67
2023/03/15 05:12:27;;;;;;;4.75;1.62;;;4.70;68.60;;;;;;2506387;54;20950;-68
2023/03/15 05:14:53;;;;;;;5.97;2.37;;;4.70;68.60;;;;;;2276920;55;21094;-67
2023/03/15 05:17:29;;;;;;;7.07;2.08;;;4.70;68.60;;;;;;2512621;54;21026;-68
2023/03/15 05:19:55;;;;;;;3.17;1.40;;;4.70;68.50;;;;;;2279263;55;21020;-66
2023/03/15 05:22:24;;;;;;;2.60;1.25;;;4.70;68.60;;;;;;2278936;55;20982;-67
2023/03/15 05:24:54;;;;;;;3.00;1.08;;;4.70;68.70;;;;;;2278714;55;20918;-66
2023/03/15 05:27:20;;;;;;;3.22;1.33;;;4.70;68.70;;;;;;2511889;54;20965;-67
2023/03/15 05:29:46;;;;;;;6.05;2.00;;;4.60;68.70;;;;;;2279879;55;21123;-66
2023/03/15 05:32:15;;;;;;;4.18;1.58;;;4.70;69.20;;;;;;2277011;55;21013;-66
2023/03/15 05:34:43;;;;;;;4.35;1.62;;;4.60;68.70;;;;;;2273138;55;21034;-67
2023/03/15 05:37:11;;;;;;;4.90;1.52;;;4.60;68.70;;;;;;2279266;55;21060;-66
2023/03/15 05:39:37;;;;;;;3.30;1.65;;;4.70;68.90;;;;;;2278937;55;21980;-67
2023/03/15 05:42:04;;;;;;;4.85;1.92;;;4.70;68.90;;;;;;2278875;55;21005;-68
2023/03/15 05:44:32;;;;;;;5.85;1.75;;;4.60;68.80;;;;;;2512011;54;21036;-67
2023/03/15 05:46:59;;;;;;;5.15;1.75;;;4.60;68.80;;;;;;2512194;54;20942;-66
2023/03/15 05:49:28;;;;;;;4.30;1.55;;;4.60;68.80;;;;;;2279725;55;21001;-66
2023/03/15 05:51:54;;;;;;;5.90;1.33;;;4.70;68.90;;;;;;2279064;55;20946;-66
2023/03/15 05:54:20;;;;;;;4.85;1.40;;;4.60;68.80;;;;;;2278553;55;20962;-66
2023/03/15 05:56:47;;;;;;;4.05;1.30;;;4.70;69.00;;;;;;2511927;54;21806;-67
2023/03/15 05:59:13;;;;;;;3.70;1.50;;;4.70;69.10;;;;;;2505884;54;21082;-67
2023/03/15 06:01:40;;;;;;;6.35;1.85;;;4.70;69.10;;;;;;2510398;54;21603;-67
2023/03/15 06:04:06;;;;;;;4.32;1.27;;;4.60;69.00;;;;;;2279940;55;20982;-66
2023/03/15 06:06:35;;;;;;;4.10;1.62;;;4.60;69.00;;;;;;2277841;55;21021;-67
2023/03/15 06:09:01;;;;;;;4.65;1.40;;;4.60;69.00;;;;;;2512804;54;21955;-67
2023/03/15 06:11:29;;;;;;;2.83;1.37;;;4.60;69.00;;;;;;2278515;55;21854;-66
2023/03/15 06:13:55;;;;;;;4.62;1.48;;;4.60;69.00;;;;;;2512237;54;20942;-66
2023/03/15 06:16:22;;;;;;;4.90;1.70;;;4.70;69.10;;;;;;2510161;54;21879;-67
2023/03/15 06:18:49;;;;;;;5.90;1.70;;;4.60;69.00;;;;;;2279384;55;21093;-67
2023/03/15 06:21:16;;;;;;;2.75;1.25;;;4.60;68.90;;;;;;2506107;54;21074;-66
2023/03/15 06:23:42;;;;;;;5.15;1.60;;;4.70;69.10;;;;;;2512415;54;20957;-67
2023/03/15 06:26:09;;;;;;;4.78;1.40;;;4.60;69.00;;;;;;2279214;55;21021;-67
2023/03/15 06:28:36;;;;;;;4.07;1.60;;;4.70;69.10;;;;;;2278652;55;22090;-67
2023/03/15 06:31:09;;;;;;;2.78;1.17;;;4.70;69.10;;;;;;2512337;54;20946;-66
2023/03/15 06:33:35;;;;;;;2.50;1.20;;;4.70;69.10;;;;;;2512621;54;21001;-67
2023/03/15 06:36:03;;;;;;;3.60;1.40;;;4.70;69.10;;;;;;2509560;54;20973;-67
2023/03/15 06:38:30;;;;;;;6.03;1.98;;;4.70;69.20;;;;;;2508374;54;20965;-66
2023/03/15 06:40:59;;;;;;;4.45;1.70;;;4.70;69.20;;;;;;2512520;54;21124;-66
2023/03/15 06:43:26;;;;;;;5.40;1.80;;;4.70;69.20;;;;;;2509440;54;20964;-67
2023/03/15 06:45:54;;;;;;;7.15;2.45;;;4.70;69.20;;;;;;2508475;54;20941;-67
2023/03/15 06:48:21;;;;;;;5.72;2.28;;;4.70;69.20;;;;;;2278919;55;21456;-67
2023/03/15 06:50:48;;;;;;;5.75;2.40;;;4.70;69.30;;;;;;2278497;55;21557;-68
2023/03/15 06:53:14;;;;;;;5.28;2.35;;;4.70;69.40;;;;;;2279860;55;21010;-67
2023/03/15 06:55:41;;;;;;;3.70;2.00;;;4.70;69.50;;;;;;2511987;54;20950;-67
2023/03/15 06:58:08;;;;;;;5.35;2.37;;;4.80;69.70;;;;;;2279302;55;20973;-68
2023/03/15 07:00:34;;;;;;;5.20;2.42;;;4.80;69.80;;;;;;2278816;55;21406;-67
2023/03/15 07:03:01;;;;;;;4.35;2.08;;;4.80;69.80;;;;;;2512514;54;20986;-67
2023/03/15 07:05:27;;;;;;;4.75;1.83;;;4.80;70.00;;;;;;2279403;56;20985;-67
2023/03/15 07:07:54;;;;;;;4.65;1.73;;;4.90;70.10;;;;;;2278782;55;20969;-66
2023/03/15 07:10:20;;;;;;;4.60;1.92;;;4.90;70.20;;;;;;2277350;55;21036;-66
2023/03/15 07:12:46;;;;;;;3.45;1.15;;;4.90;70.30;;;;;;2278881;55;20966;-67
2023/03/15 07:15:13;;;;;;;3.70;1.62;;;5.00;70.50;;;;;;2279118;55;21029;-68
2023/03/15 07:17:40;;;;;;;4.62;1.83;;;5.00;70.60;;;;;;2278837;55;21986;-67
2023/03/15 07:20:08;;;;;;;5.85;1.50;;;5.10;70.70;;;;;;2279381;55;21106;-68
2023/03/15 07:22:34;;;;;;;4.20;1.65;;;5.10;70.80;;;;;;2509378;54;21132;-67
2023/03/15 07:25:01;;;;;;;5.00;1.40;;;5.20;70.90;;;;;;2512465;54;21468;-67
2023/03/15 07:27:28;;;;;;;3.33;1.60;;;5.20;70.90;;;;;;2511891;54;20958;-67
2023/03/15 07:29:54;;;;;;;4.47;1.33;;;5.30;71.10;;;;;;2280955;55;21002;-66
2023/03/15 07:32:20;;;;;;;3.08;1.40;;;5.30;71.10;;;;;;2508904;54;21441;-68
2023/03/15 07:34:47;;;;;;;3.42;1.52;;;5.40;71.20;;;;;;2274658;55;20997;-68
2023/03/15 07:37:13;;;;;;;5.12;1.62;;;5.50;71.40;;;;;;2512221;54;21013;-66
2023/03/15 07:39:42;;;;;;;3.22;1.45;;;5.50;71.40;;;;;;2278744;55;20958;-68
2023/03/15 07:42:08;;;;;;;3.53;1.40;;;5.60;71.50;;;;;;2512797;54;20961;-68
2023/03/15 07:44:35;;;;;;;4.82;1.70;;;5.60;71.50;;;;;;2278455;55;22033;-67
2023/03/15 07:47:01;;;;;;;5.28;1.62;;;5.70;71.60;;;;;;2512538;54;20978;-67
2023/03/15 07:49:28;;;;;;;7.72;2.10;;;5.70;71.60;;;;;;2279059;55;20958;-68
2023/03/15 07:51:55;;;;;;;5.12;1.48;;;5.90;71.80;;;;;;2512615;54;22024;-67
2023/03/15 07:54:22;;;;;;;4.22;1.45;;;5.90;71.90;;;;;;2505873;54;20982;-69
2023/03/15 07:56:51;;;;;;;3.45;1.50;;;5.90;71.90;;;;;;2510830;54;20958;-68
2023/03/15 07:59:17;;;;;;;3.08;1.30;;;6.00;72.10;;;;;;2506237;54;21654;-68
2023/03/15 08:01:45;;;;;;;3.20;1.33;;;6.10;72.20;;;;;;2512143;54;20962;-69
2023/03/15 08:04:11;;;;;;;2.58;1.20;;;6.10;72.20;;;;;;2278939;55;20953;-67
2023/03/15 08:06:37;;;;;;;5.07;1.50;;;6.20;72.40;;;;;;2512379;54;21017;-69
2023/03/15 08:09:05;;;;;;;4.20;1.45;;;6.30;72.50;;;;;;2279167;55;20953;-68
2023/03/15 08:11:34;;;;;;;3.50;1.37;;;6.40;72.60;;;;;;2278470;55;20957;-70
2023/03/15 08:14:00;;;;;;;4.82;1.30;;;6.40;72.60;;;;;;2512177;54;20974;-69
2023/03/15 08:16:26;;;;;;;4.75;1.83;;;6.50;72.70;;;;;;2280011;55;20938;-69
2023/03/15 08:18:53;;;;;;;4.75;1.75;;;6.70;72.90;;;;;;2256993;55;20953;-68
2023/03/15 08:21:20;;;;;;;4.28;1.83;;;6.80;73.10;;;;;;2279051;55;21847;-68
2023/03/15 08:23:46;;;;;;;3.97;1.75;;;6.80;73.20;;;;;;2512143;54;20982;-70
2023/03/15 08:26:14;;;;;;;3.60;1.73;;;6.90;73.40;;;;;;2278829;55;20995;-68
2023/03/15 08:28:42;;;;;;;4.72;1.80;;;7.10;73.90;;;;;;2278079;55;21025;-69
2023/03/15 08:31:12;;;;;;;3.53;1.75;;;7.20;74.30;;;;;;2512953;54;20974;-68
2023/03/15 08:33:39;;;;;;;4.95;1.55;;;7.30;74.70;;;;;;2512644;54;20965;-70
2023/03/15 08:36:06;;;;;;;3.67;1.52;;;7.40;75.00;;;;;;2279162;55;20989;-69
2023/03/15 08:38:33;;;;;;;4.18;1.40;;;7.60;75.40;;;;;;2278619;55;22002;-69
2023/03/15 08:40:59;;;;;;;4.97;1.30;;;7.70;75.60;;;;;;2512343;54;21005;-68
2023/03/15 08:43:25;;;;;;;2.60;1.20;;;7.90;76.00;;;;;;2279353;55;20954;-68
2023/03/15 08:45:53;;;;;;;3.35;1.80;;;8.10;76.30;;;;;;2512745;54;21048;-70
2023/03/15 08:48:30;;;;;;;4.90;1.98;;;8.20;76.30;;;;;;2279064;55;20950;-70
2023/03/15 08:51:04;;;;;;;4.60;1.83;;;8.40;76.40;;;;;;2512544;54;20979;-70
2023/03/15 08:53:31;;;;;;;5.07;2.12;;;8.60;76.40;;;;;;2278821;55;21983;-68
2023/03/15 08:55:58;;;;;;;5.15;2.08;;;8.80;76.90;;;;;;2507752;54;21016;-69
2023/03/15 08:58:24;;;;;;;3.70;2.05;;;9.00;77.10;;;;;;2280027;55;21036;-68
2023/03/15 09:00:51;;;;;;;4.90;2.17;;;9.10;77.10;;;;;;2285371;55;21313;-69
2023/03/15 09:03:18;;;;;;;4.87;2.17;;;9.30;77.10;;;;;;2500589;54;21125;-71
2023/03/15 09:05:45;;;;;;;4.43;1.90;;;9.50;77.20;;;;;;2274340;55;21017;-69
2023/03/15 09:08:12;;;;;;;3.47;1.75;;;9.60;77.20;;;;;;2279630;55;20993;-67
2023/03/15 09:10:39;;;;;;;4.95;2.10;;;9.80;77.20;;;;;;2279076;55;20954;-69
2023/03/15 09:13:05;;;;;;;4.37;1.92;;;10.00;76.10;;;;;;2279077;55;20982;-70
2023/03/15 09:15:32;;;;;;;4.20;1.92;;;10.10;75.90;;;;;;2278775;55;20942;-69
2023/03/15 09:17:59;;;;;;;4.75;2.05;;;10.30;75.80;;;;;;2512607;54;20966;-69
2023/03/15 09:20:27;;;;;;;5.10;2.35;;;10.40;75.70;;;;;;2513183;54;21001;-69
2023/03/15 09:22:56;;;;;;;5.10;2.20;;;10.60;75.60;;;;;;2512735;54;21021;-70
2023/03/15 09:25:23;;;;;;;4.95;2.50;;;10.70;74.90;;;;;;2279952;55;21046;-69
2023/03/15 09:27:50;;;;;;;7.45;2.60;;;10.80;74.60;;;;;;2512647;54;22240;-69
2023/03/15 09:30:16;;;;;;;6.03;2.95;;;10.90;74.30;;;;;;2279778;55;22020;-69
2023/03/15 09:32:44;;;;;;;5.00;2.90;;;11.00;74.20;;;;;;2512328;54;20966;-69
2023/03/15 09:35:18;;;;;;;5.47;2.70;;;11.10;73.90;;;;;;2279409;55;21069;-69
2023/03/15 09:37:44;;;;;;;7.00;3.67;;;11.20;73.60;;;;;;2512810;54;20950;-70
2023/03/15 09:40:43;;;;;;;5.95;3.33;;;11.30;73.90;;;;;;2513102;54;22134;-73
2023/03/15 09:46:09;;;;;;;7.20;2.47;;;11.40;72.60;;;;;;2279184;55;20977;-71
2023/03/15 09:49:11;;;;;;;4.90;2.45;;;11.60;71.40;;;;;;2512501;54;21470;-69
2023/03/15 09:53:15;;;;;;;7.75;2.60;;;11.70;72.20;;;;;;2279003;55;21025;-70
2023/03/15 09:55:42;;;;;;;5.45;2.60;;;11.80;71.10;;;;;;2507972;54;21085;-69
2023/03/15 09:58:18;;;;;;;4.65;2.58;;;11.90;73.00;;;;;;2277411;55;21058;-69
2023/03/15 10:00:51;;;;;;;5.93;3.10;;;11.90;72.10;;;;;;2380907;54;1345203;-68
2023/03/15 10:03:59;;;;;;;6.15;2.42;;;12.00;72.90;;;;;;2279735;55;21396;-70
2023/03/15 10:06:29;;;;;;;6.57;3.20;;;12.00;71.50;;;;;;2512851;54;20954;-69
2023/03/15 10:08:57;;;;;;;4.53;2.70;;;12.10;72.20;;;;;;2279756;55;21049;-70
2023/03/15 10:16:39;;;;;;;6.45;3.03;;;12.20;72.30;;;;;;2279702;55;20954;-69
2023/03/15 10:20:42;;;;;;;4.35;2.15;;;12.30;71.50;;;;;;2279545;55;20987;-70
2023/03/15 10:23:18;;;;;;;3.75;1.62;;;12.50;71.90;;;;;;2280420;55;21382;-69
2023/03/15 10:25:45;;;;;;;4.40;1.80;;;12.60;71.50;;;;;;2514550;54;20954;-70
2023/03/15 10:28:30;;;;;;;3.10;1.65;;;12.60;71.60;;;;;;2515727;54;21085;-69
2023/03/15 10:30:59;;;;;;;4.60;1.70;;;12.60;70.10;;;;;;2281739;56;21010;-68
2023/03/15 10:33:31;;;;;;;2.67;1.52;;;12.70;71.30;;;;;;2515755;54;21014;-69
2023/03/15 10:35:57;;;;;;;3.83;1.62;;;12.70;71.00;;;;;;2515980;54;21128;-69
2023/03/15 10:38:40;;;;;;;3.90;1.70;;;12.70;70.60;;;;;;2281490;55;21002;-69
2023/03/15 10:41:07;;;;;;;4.60;1.60;;;12.80;70.30;;;;;;2515238;54;20974;-69
2023/03/15 10:43:36;;;;;;;3.15;1.55;;;12.80;70.50;;;;;;2513791;54;21549;-69
2023/03/15 10:46:32;;;;;;;4.12;2.35;;;12.80;70.40;;;;;;2279225;55;21009;-71
2023/03/15 10:49:05;;;;;;;5.75;2.00;;;12.80;69.50;;;;;;2261762;55;21730;-69
2023/03/15 10:51:32;;;;;;;2.78;1.40;;;12.90;70.50;;;;;;2285590;55;21069;-68
2023/03/15 10:54:05;;;;;;;3.30;1.40;;;12.90;69.90;;;;;;2488581;54;21004;-70
2023/03/15 10:56:35;;;;;;;2.95;1.45;;;13.00;69.30;;;;;;2285056;55;21093;-71
2023/03/15 10:59:02;;;;;;;3.85;1.58;;;13.00;69.20;;;;;;2515531;54;21994;-71
2023/03/15 11:01:38;;;;;;;2.90;1.50;;;13.00;69.20;;;;;;2516808;54;21017;-70
2023/03/15 11:05:56;;;;;;;3.25;1.40;;;13.00;69.00;;;;;;2516244;54;20978;-71
2023/03/15 11:08:35;;;;;;;4.03;1.40;;;13.10;66.70;;;;;;2280135;55;21106;-72
2023/03/15 11:11:01;;;;;;;3.17;1.45;;;13.10;69.20;;;;;;2281299;55;20966;-67
2023/03/15 11:13:29;;;;;;;3.45;1.37;;;13.10;69.40;;;;;;2509410;54;20963;-69
2023/03/15 11:16:38;;;;;;;3.92;1.40;;;13.10;69.50;;;;;;2281911;55;21388;-67
2023/03/15 11:19:11;;;;;;;3.30;1.27;;;13.10;67.00;;;;;;2280938;55;21049;-69
2023/03/15 11:21:37;;;;;;;2.83;1.20;;;13.20;69.20;;;;;;2280451;55;21352;-69
2023/03/15 11:24:10;;;;;;;2.83;1.20;;;13.20;69.40;;;;;;2277690;55;21023;-68
2023/03/15 11:26:39;;;;;;;;;;;13.20;69.50;;;;;;2282909;55;20955;-71
2023/03/15 11:29:24;;;;;;;2.17;0.85;;;13.30;67.40;;;;;;2279220;55;20076;-71
2023/03/15 11:31:55;;;;;;;2.83;1.00;;;13.30;68.30;;;;;;2507232;54;20991;-69
2023/03/15 11:34:45;;;;;;;3.10;1.10;;;13.30;69.50;;;;;;2508497;55;21001;-72
2023/03/15 11:37:21;;;;;;;2.22;0.77;;;13.30;67.30;;;;;;2507177;54;21450;-69
2023/03/15 11:39:53;;;;;;;2.20;0.80;;;13.40;68.20;;;;;;2275218;55;21109;-69
2023/03/15 11:42:34;;;;;;;1.58;0.70;;;13.30;68.50;;;;;;2279447;55;22022;-72
2023/03/15 11:45:05;;;;;;;2.03;0.82;;;13.40;69.30;;;;;;2279644;55;21605;-69
2023/03/15 11:47:46;;;;;;;2.22;0.98;;;13.40;69.50;;;;;;2279370;55;20953;-69
2023/03/15 11:50:14;;;;;;;2.55;0.90;;;13.50;69.00;;;;;;2512216;54;21061;-69
2023/03/15 11:52:41;;;;;;;1.90;0.75;;;13.50;70.10;;;;;;2511517;54;21001;-68
2023/03/15 11:55:19;;;;;;;3.05;0.75;;;13.70;70.10;;;;;;2512539;54;22114;-69
2023/03/15 11:57:48;;;;;;;1.77;0.60;;;13.70;69.20;;;;;;2279016;55;20933;-69
2023/03/15 12:01:22;;;;;;;1.92;0.80;;;13.80;70.10;;;;;;2513057;54;21053;-70
2023/03/15 12:03:49;;;;;;;2.17;0.82;;;13.90;67.00;;;;;;2277879;55;21986;-72
2023/03/15 12:06:36;;;;;;;2.35;1.00;;;14.00;70.00;;;;;;2279252;55;20962;-69
2023/03/15 12:09:37;;;;;;;3.33;1.00;;;14.00;66.90;;;;;;2279177;55;21003;-70
2023/03/15 12:12:40;;;;;;;2.85;0.98;;;14.00;67.50;;;;;;2513067;54;20994;-69
2023/03/15 12:17:16;;;;;;;3.67;1.02;;;14.10;66.80;;;;;;2512429;54;20969;-69
2023/03/15 12:19:43;;;;;;;2.80;1.20;;;14.10;65.40;;;;;;2279103;55;21016;-69
2023/03/15 12:22:14;;;;;;;7.43;3.33;;;14.10;68.20;;;;;;2277932;55;21071;-68
2023/03/15 12:24:43;;;;;;;5.45;2.75;;;14.10;67.00;;;;;;2512285;54;21033;-71
2023/03/15 12:27:19;;;;;;;4.80;1.80;;;14.10;67.30;;;;;;2279886;55;20957;-70
2023/03/15 12:29:46;;;;;;;5.22;2.17;;;14.10;66.10;;;;;;2277497;55;21023;-72
2023/03/15 12:32:16;;;;;;;6.75;2.60;;;14.10;67.40;;;;;;2279841;55;20953;-69
2023/03/15 12:35:16;;;;;;;4.57;2.00;;;14.10;67.80;;;;;;2512080;54;20970;-70
2023/03/15 12:37:50;;;;;;;3.70;1.33;;;14.10;65.20;;;;;;2279384;55;20990;-69
2023/03/15 12:40:47;;;;;;;6.70;2.55;;;14.10;67.40;;;;;;2513064;54;20962;-69
2023/03/15 12:43:14;;;;;;;7.75;2.60;;;14.20;65.90;;;;;;2279955;55;21017;-72
2023/03/15 12:45:44;;;;;;;4.78;1.67;;;14.20;68.20;;;;;;2507416;54;20980;-69
2023/03/15 12:48:20;;;;;;;4.47;1.20;;;14.20;67.90;;;;;;2277751;55;20979;-73
2023/03/15 12:50:51;;;;;;;3.22;1.02;;;14.30;67.50;;;;;;2511498;54;21088;-74
2023/03/15 12:53:40;;;;;;;1.90;0.70;;;14.30;67.80;;;;;;2279997;55;21693;-75
2023/03/15 12:57:09;;;;;;;2.30;0.70;;;14.30;66.10;;;;;;2512756;54;22074;-78
2023/03/15 12:59:51;;;;;;;3.03;0.80;;;14.40;65.60;;;;;;2512380;54;21604;-71
2023/03/15 13:02:34;;;;;;;2.17;0.88;;;14.40;66.60;;;;;;2278860;55;21144;-70
2023/03/15 13:07:09;;;;;;;1.95;0.70;;;14.40;66.60;;;;;;2512705;54;21094;-69
2023/03/15 13:12:58;;;;;;;1.70;0.70;;;14.40;65.50;;;;;;2278799;55;21525;-67
2023/03/15 13:15:28;;;;;;;1.40;0.57;;;14.60;66.00;;;;;;2512554;54;20986;-70
2023/03/15 13:17:57;;;;;;;2.42;0.65;;;14.60;68.20;;;;;;2276502;55;21365;-67
2023/03/15 13:20:41;;;;;;;1.73;0.60;;;14.60;68.30;;;;;;2279938;55;21962;-69
2023/03/15 13:25:13;;;;;;;2.05;0.60;;;14.70;66.70;;;;;;2279180;55;21861;-69
2023/03/15 13:27:54;;;;;;;2.20;0.60;;;14.70;66.30;;;;;;2277951;55;20977;-69
2023/03/15 13:30:39;;;;;;;3.57;0.93;;;14.70;66.90;;;;;;2513496;54;20973;-71
2023/03/15 13:33:30;;;;;;;2.65;0.60;;;14.80;67.00;;;;;;2512743;54;20977;-70
2023/03/15 13:36:01;;;;;;;2.03;0.77;;;14.70;65.70;;;;;;2279480;55;20994;-72